createdAt,value
2022-12-03T00:04:04.938Z,92.90
2022-12-03T00:09:04.788Z,93.67
2022-12-03T00:14:04.713Z,93.98
2022-12-03T00:19:04.720Z,94.98
2022-12-03T00:24:04.743Z,94.98
2022-12-03T00:29:04.530Z,94.92
2022-12-03T00:34:04.449Z,95.23
2022-12-03T00:39:04.347Z,94.88
2022-12-03T00:44:04.348Z,94.57
2022-12-03T00:49:04.220Z,94.98
2022-12-03T00:54:04.202Z,94.92
2022-12-03T00:59:04.157Z,95.03
2022-12-03T01:04:04.032Z,94.88
2022-12-03T01:09:04.000Z,94.78
2022-12-03T01:14:03.922Z,94.09
2022-12-03T01:19:03.847Z,94.50
2022-12-03T01:24:03.848Z,93.67
2022-12-03T01:29:03.735Z,94.50
2022-12-03T01:34:03.656Z,94.50
2022-12-03T01:39:03.603Z,94.61
2022-12-03T01:44:03.521Z,93.88
2022-12-03T01:49:03.470Z,93.67
2022-12-03T01:54:03.484Z,93.88
2022-12-03T01:59:03.358Z,93.88
2022-12-03T02:04:03.393Z,92.63
2022-12-03T02:09:03.212Z,93.46
2022-12-03T02:14:03.135Z,93.35
2022-12-03T02:19:03.151Z,93.57
2022-12-03T02:24:03.080Z,93.50
2022-12-03T02:29:03.023Z,93.57
2022-12-03T02:34:02.902Z,93.82
2022-12-03T02:39:02.858Z,95.49
2022-12-03T02:44:02.795Z,95.07
2022-12-03T02:49:02.701Z,95.03
2022-12-03T02:54:02.683Z,94.09
2022-12-03T02:59:02.580Z,93.04
2022-12-03T03:04:02.502Z,93.77
2022-12-03T03:09:03.970Z,93.67
2022-12-03T03:14:02.513Z,92.52
2022-12-03T03:19:02.408Z,93.57
2022-12-03T03:24:02.567Z,93.67
2022-12-03T03:29:02.897Z,92.94
2022-12-03T03:34:03.638Z,92.83
2022-12-03T03:39:02.559Z,92.94
2022-12-03T03:44:02.697Z,93.04
2022-12-03T03:49:03.445Z,93.46
2022-12-03T03:54:06.053Z,93.15
2022-12-03T03:59:03.318Z,92.10
2022-12-03T04:04:02.020Z,93.25
2022-12-03T04:09:02.253Z,92.73
2022-12-03T04:14:03.123Z,93.29
2022-12-03T04:19:03.054Z,94.13
2022-12-03T04:24:01.746Z,92.83
2022-12-03T04:29:02.920Z,92.52
2022-12-03T04:34:01.419Z,92.83
2022-12-03T04:39:01.348Z,92.52
2022-12-03T04:44:01.400Z,92.73
2022-12-03T04:49:01.226Z,93.29
2022-12-03T04:54:02.597Z,93.50
2022-12-03T04:59:01.386Z,94.02
2022-12-03T05:04:01.035Z,94.02
2022-12-03T05:09:01.456Z,93.40
2022-12-03T05:14:02.353Z,93.40
2022-12-03T05:19:02.274Z,94.55
2022-12-03T05:24:00.908Z,94.02
2022-12-03T05:29:01.293Z,93.71
2022-12-03T05:34:01.224Z,93.57
2022-12-03T05:39:00.851Z,93.46
2022-12-03T05:44:00.722Z,93.98
2022-12-03T05:49:00.983Z,94.09
2022-12-03T05:54:00.656Z,93.77
2022-12-03T05:59:01.779Z,93.67
2022-12-03T06:04:04.457Z,93.77
2022-12-03T06:09:00.350Z,93.52
2022-12-03T06:14:00.198Z,92.79
2022-12-03T06:19:03.906Z,93.25
2022-12-03T06:24:01.448Z,93.46
2022-12-03T06:29:01.385Z,93.46
2022-12-03T06:34:00.184Z,93.10
2022-12-03T06:39:00.255Z,93.31
2022-12-03T06:43:59.774Z,93.00
2022-12-03T06:49:03.590Z,92.90
2022-12-03T06:54:00.083Z,92.79
2022-12-03T06:59:01.019Z,93.25
2022-12-03T07:04:00.962Z,93.41
2022-12-03T07:09:00.992Z,93.41
2022-12-03T07:14:04.702Z,93.10
2022-12-03T07:19:00.330Z,93.00
2022-12-03T07:23:59.465Z,93.06
2022-12-03T07:29:03.073Z,92.44
2022-12-03T07:34:00.608Z,92.33
2022-12-03T07:38:59.248Z,92.54
2022-12-03T07:44:00.529Z,92.90
2022-12-03T07:49:01.845Z,92.33
2022-12-03T07:53:59.769Z,92.44
2022-12-03T07:58:59.989Z,91.91
2022-12-03T08:04:00.354Z,93.44
2022-12-03T08:08:58.736Z,90.83
2022-12-03T08:14:01.242Z,91.04
2022-12-03T08:18:58.834Z,92.29
2022-12-03T08:23:59.993Z,91.00
2022-12-03T08:28:58.475Z,90.68
2022-12-03T08:33:59.142Z,90.26
2022-12-03T08:39:02.504Z,90.26
2022-12-03T08:43:58.281Z,91.37
2022-12-03T08:48:58.865Z,90.33
2022-12-03T08:54:01.921Z,89.87
2022-12-03T08:58:59.649Z,90.60
2022-12-03T09:03:59.693Z,90.45
2022-12-03T09:09:03.797Z,88.79
2022-12-03T09:14:00.389Z,88.83
2022-12-03T09:18:59.356Z,90.50
2022-12-03T09:23:59.772Z,89.45
2022-12-03T09:28:59.172Z,90.33
2022-12-03T09:33:59.514Z,90.22
2022-12-03T09:38:59.398Z,91.75
2022-12-03T09:44:05.936Z,89.66
2022-12-03T09:48:59.827Z,89.98
2022-12-03T09:54:04.567Z,89.66
2022-12-03T09:58:58.268Z,90.19
2022-12-03T10:03:58.845Z,90.29
2022-12-03T10:08:57.265Z,90.35
2022-12-03T10:13:59.257Z,90.66
2022-12-03T10:18:58.516Z,89.79
2022-12-03T10:23:57.897Z,89.73
2022-12-03T10:28:58.322Z,90.70
2022-12-03T10:33:57.857Z,90.04
2022-12-03T10:38:58.397Z,89.94
2022-12-03T10:43:58.544Z,91.22
2022-12-03T10:48:59.930Z,91.12
2022-12-03T10:53:58.240Z,91.81
2022-12-03T10:58:57.984Z,91.08
2022-12-03T11:03:58.063Z,90.56
2022-12-03T11:08:59.398Z,90.14
2022-12-03T11:13:57.501Z,90.00
2022-12-03T11:18:57.635Z,90.06
2022-12-03T11:23:56.152Z,89.41
2022-12-03T11:28:56.172Z,89.48
2022-12-03T11:33:56.133Z,90.25
2022-12-03T11:38:56.038Z,89.79
2022-12-03T11:43:56.520Z,89.58
2022-12-03T11:48:59.646Z,89.79
2022-12-03T11:53:55.762Z,90.79
2022-12-03T11:58:56.284Z,89.08
2022-12-03T12:03:55.939Z,88.46
2022-12-03T12:08:59.489Z,88.56
2022-12-03T12:13:59.781Z,89.08
2022-12-03T12:18:59.550Z,89.39
2022-12-03T12:23:56.808Z,89.98
2022-12-03T12:28:56.917Z,96.48
2022-12-03T12:33:56.747Z,99.99
2022-12-03T12:38:56.701Z,86.65
2022-12-03T12:43:56.687Z,80.44
2022-12-03T12:48:59.662Z,80.40
2022-12-03T12:53:56.604Z,86.17
2022-12-03T12:58:55.284Z,89.85
2022-12-03T13:03:55.727Z,83.85
2022-12-03T13:08:55.085Z,91.55
2022-12-03T13:13:55.116Z,85.77
2022-12-03T13:18:56.118Z,88.90
2022-12-03T13:23:54.728Z,89.62
2022-12-03T13:28:54.663Z,90.91
2022-12-03T13:33:58.795Z,90.91
2022-12-03T13:38:54.636Z,91.64
2022-12-03T13:43:54.917Z,91.85
2022-12-03T13:48:57.426Z,91.95
2022-12-03T13:53:55.467Z,92.05
2022-12-03T13:58:54.370Z,91.70
2022-12-03T14:03:58.442Z,91.91
2022-12-03T14:08:54.027Z,91.80
2022-12-03T14:13:57.986Z,91.39
2022-12-03T14:18:54.294Z,91.18
2022-12-03T14:23:54.176Z,90.97
2022-12-03T14:29:00.392Z,91.85
2022-12-03T14:33:54.223Z,92.26
2022-12-03T14:38:54.143Z,92.51
2022-12-03T14:43:53.772Z,93.39
2022-12-03T14:48:54.217Z,94.01
2022-12-03T14:53:57.230Z,93.91
2022-12-03T14:58:53.383Z,94.12
2022-12-03T15:03:53.331Z,94.57
2022-12-03T15:09:14.037Z,95.09
2022-12-03T15:13:57.091Z,94.84
2022-12-03T15:18:53.277Z,94.64
2022-12-03T15:23:54.497Z,94.64
2022-12-03T15:28:54.427Z,94.68
2022-12-03T15:33:54.449Z,95.30
2022-12-03T15:38:54.361Z,94.78
2022-12-03T15:43:54.447Z,93.91
2022-12-03T15:48:54.271Z,94.26
2022-12-03T15:53:54.118Z,94.78
2022-12-03T15:58:54.045Z,94.99
2022-12-03T16:03:54.077Z,95.09
2022-12-03T16:08:56.415Z,94.57
2022-12-03T16:13:52.965Z,94.68
2022-12-03T16:18:52.910Z,94.89
2022-12-03T16:23:52.335Z,95.40
2022-12-03T16:28:52.676Z,95.40
2022-12-03T16:33:52.556Z,95.30
2022-12-03T16:38:53.534Z,94.68
2022-12-03T16:43:56.133Z,94.99
2022-12-03T16:48:55.909Z,95.05
2022-12-03T16:53:53.339Z,99.99
2022-12-03T16:58:53.254Z,86.17
2022-12-03T17:03:51.885Z,88.51
2022-12-03T17:08:51.735Z,92.49
2022-12-03T17:13:52.053Z,93.57
2022-12-03T17:18:51.993Z,92.68
2022-12-03T17:23:52.933Z,94.13
2022-12-03T17:28:51.519Z,93.20
2022-12-03T17:33:51.597Z,93.30
2022-12-03T17:38:51.331Z,93.24
2022-12-03T17:43:52.690Z,93.76
2022-12-03T17:48:51.593Z,94.76
2022-12-03T17:53:52.551Z,93.57
2022-12-03T17:58:51.053Z,93.10
2022-12-03T18:03:52.518Z,93.37
2022-12-03T18:08:52.368Z,93.57
2022-12-03T18:13:51.048Z,93.20
2022-12-03T18:18:56.373Z,93.62
2022-12-03T18:23:51.742Z,99.99
2022-12-03T18:28:50.848Z,87.24
2022-12-03T18:33:50.588Z,87.68
2022-12-03T18:38:51.985Z,95.62
2022-12-03T18:43:50.579Z,90.56
2022-12-03T18:48:50.427Z,94.68
2022-12-03T18:53:50.545Z,94.09
2022-12-03T18:58:50.656Z,85.34
2022-12-03T19:03:54.206Z,99.99
2022-12-03T19:08:50.319Z,99.99
2022-12-03T19:13:54.275Z,87.18
2022-12-03T19:18:50.539Z,83.64
2022-12-03T19:24:22.658Z,81.83
2022-12-03T19:28:51.112Z,81.26
2022-12-03T19:33:50.235Z,80.53
2022-12-03T19:38:55.189Z,81.70
2022-12-03T19:43:51.024Z,79.83
2022-12-03T19:48:53.726Z,81.05
2022-12-03T19:53:50.123Z,83.40
2022-12-03T19:58:50.923Z,84.86
2022-12-03T20:03:49.595Z,86.25
2022-12-03T20:08:49.417Z,87.53
2022-12-03T20:13:51.280Z,88.51
2022-12-03T20:18:49.287Z,89.69
2022-12-03T20:23:50.171Z,89.79
2022-12-03T20:28:50.652Z,90.81
2022-12-03T20:33:50.675Z,92.16
2022-12-03T20:38:49.882Z,91.43
2022-12-03T20:43:49.253Z,91.74
2022-12-03T20:48:48.882Z,91.53
2022-12-03T20:53:49.047Z,92.30
2022-12-03T20:58:48.984Z,93.03
2022-12-03T21:03:49.204Z,93.14
2022-12-03T21:08:49.415Z,93.24
2022-12-03T21:13:49.543Z,92.93
2022-12-03T21:18:48.785Z,93.70
2022-12-03T21:23:48.616Z,94.22
2022-12-03T21:28:49.790Z,94.64
2022-12-03T21:33:48.409Z,94.43
2022-12-03T21:38:49.341Z,94.49
2022-12-03T21:43:48.652Z,94.49
2022-12-03T21:48:51.969Z,94.28
2022-12-03T21:53:49.463Z,94.49
2022-12-03T21:58:48.226Z,94.84
2022-12-03T22:03:49.349Z,95.47
2022-12-03T22:08:49.268Z,95.47
2022-12-03T22:13:48.150Z,95.47
2022-12-03T22:18:51.620Z,95.32
2022-12-03T22:23:51.647Z,95.47
2022-12-03T22:28:47.849Z,95.99
2022-12-03T22:33:51.482Z,96.66
2022-12-03T22:38:48.458Z,95.99
2022-12-03T22:43:47.532Z,96.20
2022-12-03T22:48:51.300Z,96.20
2022-12-03T22:53:47.326Z,95.99
2022-12-03T22:58:47.236Z,95.73
2022-12-03T23:03:47.465Z,95.42
2022-12-03T23:08:48.487Z,95.73
2022-12-03T23:13:48.396Z,95.53
2022-12-03T23:18:46.901Z,95.73
2022-12-03T23:23:46.837Z,95.78
2022-12-03T23:28:46.959Z,95.78
2022-12-03T23:33:48.312Z,95.78
2022-12-03T23:38:48.097Z,95.78
2022-12-03T23:43:47.095Z,95.57
2022-12-03T23:48:46.584Z,96.20
2022-12-03T23:53:47.904Z,95.67
2022-12-03T23:58:46.352Z,95.47
